Time;durP1;ratioP1;P1;durP2;ratioP2;P2;SDS_P1;SDS_P2;PMS_P1;PMS_P2;Temp;Humidity;BMP_temperature;BMP_pressure;BME280_temperature;BME280_humidity;BME280_pressure;Samples;Min_cycle;Max_cycle;Signal;HPM_P1;HPM_P2
2023/09/12 00:02:16;;;;;;;9.27;6.50;;;21.40;91.30;;;;;;4970310;28;20061;-62
2023/09/12 00:05:20;;;;;;;7.72;6.38;;;21.40;91.80;;;;;;4973164;28;20038;-62
2023/09/12 00:08:24;;;;;;;10.88;6.57;;;21.40;92.00;;;;;;4973103;28;20041;-62
2023/09/12 00:11:28;;;;;;;14.80;6.88;;;21.30;92.20;;;;;;5033722;23;20052;-55
2023/09/12 00:14:32;;;;;;;10.88;7.03;;;21.30;92.40;;;;;;5011160;28;20049;-57
2023/09/12 00:17:37;;;;;;;11.07;6.68;;;21.30;92.60;;;;;;5012428;28;20032;-56
2023/09/12 00:20:41;;;;;;;11.45;6.57;;;21.20;93.10;;;;;;5008614;28;20053;-58
2023/09/12 00:23:45;;;;;;;10.48;6.97;;;21.20;93.60;;;;;;5011222;28;20507;-58
2023/09/12 00:26:49;;;;;;;12.27;6.93;;;21.10;94.10;;;;;;5012018;28;20064;-58
2023/09/12 00:29:53;;;;;;;10.32;6.70;;;21.10;94.50;;;;;;5008114;28;20407;-57
2023/09/12 00:32:57;;;;;;;8.52;6.63;;;21.00;94.70;;;;;;5011335;28;20503;-55
2023/09/12 00:36:00;;;;;;;10.40;6.57;;;20.90;95.10;;;;;;5010726;28;20036;-54
2023/09/12 00:39:07;;;;;;;7.32;6.05;;;20.90;95.40;;;;;;5010359;28;20037;-55
2023/09/12 00:42:11;;;;;;;8.82;6.78;;;20.70;96.20;;;;;;5011687;28;20514;-55
2023/09/12 00:45:15;;;;;;;10.90;6.80;;;20.70;96.70;;;;;;5011523;28;20065;-56
2023/09/12 00:48:22;;;;;;;7.68;6.55;;;20.60;96.90;;;;;;5010178;28;20404;-60
2023/09/12 00:51:31;;;;;;;9.43;6.38;;;20.60;97.00;;;;;;5010790;28;20041;-56
2023/09/12 00:54:35;;;;;;;8.00;7.03;;;20.60;97.30;;;;;;5009998;28;20523;-54
2023/09/12 00:57:41;;;;;;;8.43;6.63;;;20.60;97.80;;;;;;5006076;28;20483;-54
2023/09/12 01:00:45;;;;;;;8.48;6.80;;;20.50;98.30;;;;;;5011560;28;20033;-57
2023/09/12 01:03:49;;;;;;;9.45;6.63;;;20.50;98.30;;;;;;5008986;28;20049;-59
2023/09/12 01:06:53;;;;;;;12.80;7.22;;;20.50;98.40;;;;;;5007308;28;20053;-55
2023/09/12 01:09:57;;;;;;;9.30;6.53;;;20.60;98.40;;;;;;5011011;28;20037;-56
2023/09/12 01:13:02;;;;;;;7.55;6.30;;;20.50;98.40;;;;;;5010778;28;20048;-54
2023/09/12 01:16:06;;;;;;;10.77;6.47;;;20.40;98.90;;;;;;5009232;28;20044;-57
2023/09/12 01:19:14;;;;;;;10.40;7.18;;;20.40;98.90;;;;;;5011319;28;20253;-58
2023/09/12 01:22:35;;;;;;;11.05;7.30;;;20.30;99.30;;;;;;5011013;28;20049;-63
2023/09/12 01:26:06;;;;;;;10.77;7.83;;;20.30;99.90;;;;;;5005657;28;20037;-57
2023/09/12 01:29:13;;;;;;;8.60;6.57;;;21.00;99.90;;;;;;5011191;28;20041;-57
2023/09/12 01:32:19;;;;;;;9.30;6.93;;;20.10;99.90;;;;;;5003424;28;20053;-56
2023/09/12 01:35:24;;;;;;;11.80;7.38;;;20.00;99.90;;;;;;5003543;28;20053;-54
2023/09/12 01:38:28;;;;;;;11.48;7.07;;;19.80;99.90;;;;;;5014344;28;20040;-56
2023/09/12 01:41:37;;;;;;;11.02;7.22;;;19.70;99.90;;;;;;5013770;28;20041;-57
2023/09/12 01:44:44;;;;;;;11.23;7.68;;;19.60;99.90;;;;;;5008089;28;20408;-55
2023/09/12 01:47:50;;;;;;;15.93;7.78;;;19.60;99.90;;;;;;5015006;28;20492;-56
2023/09/12 01:50:55;;;;;;;12.25;7.68;;;19.60;99.90;;;;;;5002855;28;20040;-54
2023/09/12 01:54:00;;;;;;;17.80;8.27;;;19.50;99.90;;;;;;5014272;28;20448;-54
2023/09/12 01:57:05;;;;;;;9.52;7.90;;;19.50;99.90;;;;;;5013930;28;20045;-56
2023/09/12 02:00:10;;;;;;;9.88;7.57;;;19.40;99.90;;;;;;5013257;28;20400;-58
2023/09/12 02:03:14;;;;;;;9.93;7.57;;;19.40;99.90;;;;;;5012605;28;20519;-56
2023/09/12 02:06:18;;;;;;;10.80;8.13;;;19.30;99.90;;;;;;5010590;28;20052;-57
2023/09/12 02:09:22;;;;;;;7.70;6.63;;;19.20;99.90;;;;;;5008960;28;20033;-55
2023/09/12 02:12:26;;;;;;;11.77;7.63;;;19.20;99.90;;;;;;5013435;28;20033;-54
2023/09/12 02:15:30;;;;;;;13.32;8.27;;;19.10;99.90;;;;;;5014533;28;20056;-58
2023/09/12 02:18:34;;;;;;;11.63;7.82;;;19.20;99.90;;;;;;5012848;28;20033;-57
2023/09/12 02:21:38;;;;;;;14.00;7.82;;;19.10;99.90;;;;;;5014330;28;20049;-55
2023/09/12 02:24:42;;;;;;;9.98;7.63;;;19.10;99.90;;;;;;5013766;28;20033;-57
2023/09/12 02:27:46;;;;;;;9.38;7.18;;;19.10;99.90;;;;;;5012883;28;20041;-55
2023/09/12 02:30:50;;;;;;;9.98;7.43;;;19.10;99.90;;;;;;5014138;28;20053;-54
2023/09/12 02:33:54;;;;;;;9.77;7.78;;;19.10;99.90;;;;;;5012774;28;20041;-56
2023/09/12 02:36:59;;;;;;;11.10;7.50;;;19.00;99.90;;;;;;5009804;28;20041;-54
2023/09/12 02:40:05;;;;;;;12.05;7.57;;;18.90;99.90;;;;;;5013896;28;20065;-55
2023/09/12 02:43:09;;;;;;;12.82;7.65;;;18.80;99.90;;;;;;5008835;28;20038;-55
2023/09/12 02:46:13;;;;;;;14.55;7.95;;;18.70;99.90;;;;;;5013607;28;20404;-56
2023/09/12 02:49:18;;;;;;;12.20;7.38;;;18.70;99.90;;;;;;5012911;28;20442;-55
2023/09/12 02:52:22;;;;;;;8.95;7.75;;;18.70;99.90;;;;;;5007350;28;20033;-57
2023/09/12 02:55:26;;;;;;;10.63;8.02;;;18.70;99.90;;;;;;5013435;28;20036;-57
2023/09/12 02:58:31;;;;;;;11.65;7.55;;;18.70;99.90;;;;;;5012778;28;20065;-56
2023/09/12 03:01:35;;;;;;;11.05;7.80;;;18.70;99.90;;;;;;5009871;28;20037;-57
2023/09/12 03:04:40;;;;;;;11.40;8.68;;;18.70;99.90;;;;;;5012559;28;20048;-57
2023/09/12 03:07:44;;;;;;;10.48;8.45;;;18.70;99.90;;;;;;5011976;28;20041;-59
2023/09/12 03:10:56;;;;;;;12.88;8.40;;;18.60;99.90;;;;;;5007722;28;20056;-57
2023/09/12 03:14:00;;;;;;;10.20;7.95;;;18.50;99.90;;;;;;5012891;28;20403;-54
2023/09/12 03:17:04;;;;;;;11.20;8.75;;;18.40;99.90;;;;;;5007171;28;20045;-54
2023/09/12 03:20:08;;;;;;;13.80;8.65;;;18.20;99.90;;;;;;5011965;28;20503;-57
2023/09/12 03:23:13;;;;;;;14.02;8.18;;;18.10;99.90;;;;;;5011933;28;20049;-57
2023/09/12 03:26:16;;;;;;;13.18;9.57;;;17.90;99.90;;;;;;5004167;28;20061;-56
2023/09/12 03:29:20;;;;;;;11.27;8.80;;;17.70;99.90;;;;;;5012160;28;20388;-57
2023/09/12 03:32:25;;;;;;;12.70;9.20;;;17.60;99.90;;;;;;5012205;28;20056;-58
2023/09/12 03:35:31;;;;;;;13.52;9.85;;;17.50;99.90;;;;;;5011299;28;20522;-54
2023/09/12 03:38:35;;;;;;;12.45;10.48;;;17.40;99.90;;;;;;5000899;28;20416;-57
2023/09/12 03:41:39;;;;;;;15.75;10.52;;;17.30;99.90;;;;;;5005942;28;20045;-57
2023/09/12 03:44:44;;;;;;;13.65;10.43;;;17.20;99.90;;;;;;5011512;28;20061;-57
2023/09/12 03:47:48;;;;;;;18.63;10.88;;;17.10;99.90;;;;;;5012776;28;20056;-57
2023/09/12 03:50:53;;;;;;;16.95;11.85;;;17.00;99.90;;;;;;5011220;28;20121;-56
2023/09/12 03:53:56;;;;;;;14.40;11.75;;;16.90;99.90;;;;;;5012395;28;20503;-54
2023/09/12 03:57:01;;;;;;;15.10;11.70;;;16.80;99.90;;;;;;5011544;28;20041;-57
2023/09/12 04:00:06;;;;;;;16.77;11.43;;;16.80;99.90;;;;;;5006309;28;20037;-59
2023/09/12 04:03:17;;;;;;;16.67;11.95;;;16.80;99.90;;;;;;5011641;28;20037;-56
2023/09/12 04:06:22;;;;;;;15.88;11.52;;;16.80;99.90;;;;;;5011574;28;20045;-58
2023/09/12 04:09:27;;;;;;;17.63;12.02;;;16.90;99.90;;;;;;5010160;28;20040;-56
2023/09/12 04:12:31;;;;;;;18.20;12.13;;;17.00;99.90;;;;;;5011290;28;20036;-56
2023/09/12 04:15:35;;;;;;;15.25;11.93;;;17.00;99.90;;;;;;5012028;28;20041;-54
2023/09/12 04:18:39;;;;;;;14.98;10.75;;;17.00;99.90;;;;;;5010846;28;20040;-56
2023/09/12 04:21:43;;;;;;;15.23;11.50;;;17.00;99.90;;;;;;5011333;28;20037;-54
2023/09/12 04:24:47;;;;;;;19.58;12.73;;;17.00;99.90;;;;;;5011020;28;20513;-55
2023/09/12 04:27:51;;;;;;;14.95;11.38;;;17.00;99.90;;;;;;5011045;28;20045;-54
2023/09/12 04:31:04;;;;;;;17.20;12.18;;;17.00;99.90;;;;;;5011035;28;20053;-54
2023/09/12 04:34:08;;;;;;;15.65;11.82;;;17.00;99.90;;;;;;5010406;28;20595;-55
2023/09/12 04:37:12;;;;;;;22.55;12.30;;;16.90;99.90;;;;;;5009201;28;20045;-54
2023/09/12 04:40:16;;;;;;;18.67;11.73;;;16.80;99.90;;;;;;5011667;28;20044;-55
2023/09/12 04:43:20;;;;;;;17.42;12.05;;;16.80;99.90;;;;;;5010197;28;20404;-54
2023/09/12 04:46:24;;;;;;;21.80;12.32;;;16.80;99.90;;;;;;5010706;28;20057;-57
2023/09/12 04:49:28;;;;;;;20.10;12.73;;;16.80;99.90;;;;;;5010770;28;20045;-54
2023/09/12 04:52:32;;;;;;;18.10;12.82;;;16.80;99.90;;;;;;5005878;28;20405;-58
2023/09/12 04:55:38;;;;;;;17.17;12.45;;;16.70;99.90;;;;;;5010381;28;20400;-54
2023/09/12 04:58:42;;;;;;;16.73;12.43;;;16.70;99.90;;;;;;5010351;28;20037;-56
2023/09/12 05:01:46;;;;;;;18.98;12.55;;;16.70;99.90;;;;;;5007589;28;20037;-54
2023/09/12 05:04:50;;;;;;;22.30;12.93;;;16.70;99.90;;;;;;5010179;28;20049;-55
2023/09/12 05:07:54;;;;;;;21.73;12.73;;;16.70;99.90;;;;;;5010171;28;20041;-58
2023/09/12 05:10:58;;;;;;;29.95;12.77;;;16.80;99.90;;;;;;5008450;28;20045;-54
2023/09/12 05:14:05;;;;;;;26.27;12.43;;;16.80;99.90;;;;;;5009805;28;20412;-56
2023/09/12 05:17:09;;;;;;;21.77;12.02;;;16.80;99.90;;;;;;5007994;28;20689;-56
2023/09/12 05:20:13;;;;;;;33.38;13.55;;;17.00;99.90;;;;;;5010127;28;20060;-57
2023/09/12 05:23:17;;;;;;;86.68;17.02;;;17.00;99.90;;;;;;5010689;28;20037;-57
2023/09/12 05:26:21;;;;;;;39.53;14.40;;;17.10;99.90;;;;;;5009535;28;20049;-57
2023/09/12 05:29:25;;;;;;;33.55;11.75;;;17.20;99.90;;;;;;5010936;28;20037;-57
2023/09/12 05:32:29;;;;;;;26.52;12.15;;;17.40;99.90;;;;;;4999045;28;20037;-57
2023/09/12 05:35:33;;;;;;;36.17;10.38;;;17.70;99.90;;;;;;5000610;28;20421;-57
2023/09/12 05:38:37;;;;;;;25.42;10.25;;;18.00;99.90;;;;;;5002392;28;20049;-59
2023/09/12 05:41:41;;;;;;;27.13;9.40;;;19.50;99.90;;;;;;4992574;28;20050;-57
2023/09/12 05:44:46;;;;;;;10.50;7.57;;;24.90;99.90;;;;;;5000179;28;20420;-57
2023/09/12 05:47:51;;;;;;;18.02;6.95;;;25.00;99.90;;;;;;5000929;28;20432;-57
2023/09/12 05:50:55;;;;;;;18.65;10.30;;;25.70;99.40;;;;;;5018631;28;20041;-55
2023/09/12 05:54:01;;;;;;;14.02;7.03;;;27.70;96.80;;;;;;5014398;28;20044;-55
2023/09/12 05:57:05;;;;;;;12.73;7.57;;;27.70;94.30;;;;;;5003164;28;20041;-54
2023/09/12 06:00:11;;;;;;;12.35;7.30;;;27.00;94.30;;;;;;5009147;28;20045;-55
2023/09/12 06:03:19;;;;;;;10.02;7.60;;;27.10;94.40;;;;;;5001354;28;20392;-55
2023/09/12 06:06:23;;;;;;;13.73;7.45;;;26.70;95.10;;;;;;5007035;28;20507;-58
2023/09/12 06:09:27;;;;;;;9.70;7.40;;;27.30;94.70;;;;;;5009207;28;20045;-59
2023/09/12 06:12:32;;;;;;;17.65;7.63;;;28.10;93.70;;;;;;5015728;23;20049;-62
2023/09/12 06:15:36;;;;;;;10.15;6.70;;;28.70;92.70;;;;;;4988214;28;20045;-62
2023/09/12 06:18:40;;;;;;;11.68;7.38;;;29.90;91.50;;;;;;4988220;28;20037;-62
2023/09/12 06:21:44;;;;;;;10.45;7.15;;;30.10;90.40;;;;;;4998913;28;20535;-63
2023/09/12 06:24:51;;;;;;;11.25;7.60;;;30.50;90.00;;;;;;5002518;28;20057;-63
2023/09/12 06:27:56;;;;;;;13.50;7.65;;;30.10;88.90;;;;;;5009987;28;20506;-62
2023/09/12 06:31:00;;;;;;;11.63;6.82;;;27.80;90.60;;;;;;5012164;28;20052;-62
2023/09/12 06:34:04;;;;;;;16.65;8.27;;;27.30;91.60;;;;;;5007820;28;20044;-62
2023/09/12 06:37:10;;;;;;;21.98;7.88;;;28.70;90.70;;;;;;5009033;28;20546;-62
2023/09/12 06:40:14;;;;;;;9.45;7.10;;;29.40;90.00;;;;;;5006684;28;20060;-62
2023/09/12 06:43:18;;;;;;;10.57;6.95;;;29.70;89.50;;;;;;5008285;28;20044;-62
2023/09/12 06:46:22;;;;;;;9.00;6.38;;;30.90;87.50;;;;;;5003736;28;20692;-61
2023/09/12 06:49:26;;;;;;;10.63;6.63;;;32.10;85.00;;;;;;5005559;28;20045;-60
2023/09/12 06:52:30;;;;;;;8.55;6.72;;;32.80;82.70;;;;;;5002716;28;20053;-62
2023/09/12 06:55:34;;;;;;;10.23;6.57;;;33.10;80.40;;;;;;5012378;28;20049;-61
2023/09/12 06:58:38;;;;;;;7.30;5.97;;;32.40;80.00;;;;;;5011318;28;20040;-63
2023/09/12 07:01:43;;;;;;;8.07;6.22;;;32.30;80.20;;;;;;5003063;28;20049;-62
2023/09/12 07:04:47;;;;;;;7.30;5.57;;;32.50;79.70;;;;;;5002813;28;20524;-60
2023/09/12 07:07:52;;;;;;;10.80;5.88;;;33.10;78.90;;;;;;5007594;28;20061;-60
2023/09/12 07:10:57;;;;;;;10.63;5.82;;;33.80;77.10;;;;;;5006630;28;20045;-63
2023/09/12 07:14:01;;;;;;;11.45;5.70;;;33.80;76.50;;;;;;5002439;28;20045;-63
2023/09/12 07:17:06;;;;;;;13.05;5.30;;;34.10;76.20;;;;;;5007041;28;20036;-62
2023/09/12 07:20:11;;;;;;;8.50;5.53;;;34.70;75.00;;;;;;5004964;28;20563;-63
2023/09/12 07:23:15;;;;;;;12.25;5.53;;;35.20;73.60;;;;;;5009363;28;20397;-62
2023/09/12 07:26:19;;;;;;;8.05;5.28;;;36.30;69.90;;;;;;5006730;28;20048;-62
2023/09/12 07:29:24;;;;;;;6.68;4.85;;;35.80;70.40;;;;;;5004242;28;20053;-61
2023/09/12 07:32:28;;;;;;;9.95;5.25;;;35.10;71.60;;;;;;5007892;28;20065;-62
2023/09/12 07:35:31;;;;;;;6.88;4.80;;;34.20;71.60;;;;;;5009294;28;20045;-60
2023/09/12 07:38:37;;;;;;;13.45;5.25;;;33.90;73.20;;;;;;5006749;28;20405;-63
2023/09/12 07:41:41;;;;;;;7.55;4.97;;;33.70;73.70;;;;;;5010628;28;20049;-63
2023/09/12 07:44:45;;;;;;;6.63;5.07;;;34.40;72.40;;;;;;5007413;28;20052;-61
2023/09/12 07:47:49;;;;;;;10.90;4.97;;;35.10;71.40;;;;;;5006615;28;20036;-61
2023/09/12 07:50:53;;;;;;;7.68;4.72;;;35.90;70.50;;;;;;5007794;28;20048;-57
2023/09/12 07:53:57;;;;;;;11.57;5.00;;;36.90;69.50;;;;;;5005236;28;20041;-59
2023/09/12 07:57:01;;;;;;;6.38;4.68;;;37.90;67.70;;;;;;5007309;28;20514;-61
2023/09/12 08:00:09;;;;;;;4.93;4.20;;;37.80;67.10;;;;;;5007720;28;20049;-62
2023/09/12 08:03:16;;;;;;;6.07;4.57;;;37.50;66.50;;;;;;5005441;28;20045;-62
2023/09/12 08:06:20;;;;;;;6.18;4.03;;;38.60;66.00;;;;;;5005821;28;20045;-61
2023/09/12 08:09:23;;;;;;;9.43;4.25;;;39.50;64.80;;;;;;5009488;28;20408;-61
2023/09/12 08:12:28;;;;;;;8.75;4.35;;;40.50;63.40;;;;;;5004560;28;20065;-60
2023/09/12 08:15:32;;;;;;;9.05;4.35;;;40.60;62.90;;;;;;5004691;28;20073;-61
2023/09/12 08:18:36;;;;;;;7.10;4.88;;;40.10;62.60;;;;;;5003022;28;20037;-60
2023/09/12 08:21:40;;;;;;;5.63;4.55;;;36.80;63.90;;;;;;5009388;28;20041;-62
2023/09/12 08:24:44;;;;;;;9.95;4.55;;;36.30;65.60;;;;;;5001730;28;20037;-61
2023/09/12 08:27:48;;;;;;;9.32;4.57;;;35.70;66.40;;;;;;5009416;28;20044;-64
2023/09/12 08:30:52;;;;;;;5.65;4.10;;;37.10;65.30;;;;;;5002709;28;20519;-61
2023/09/12 08:33:56;;;;;;;5.57;4.43;;;37.90;64.70;;;;;;5005350;28;20044;-63
2023/09/12 08:37:00;;;;;;;7.68;4.35;;;39.50;63.70;;;;;;5009298;28;20044;-61
2023/09/12 08:40:07;;;;;;;8.68;4.28;;;39.70;61.70;;;;;;5006569;28;20040;-61
2023/09/12 08:43:11;;;;;;;7.68;4.28;;;37.30;64.10;;;;;;5007711;28;20049;-64
2023/09/12 08:46:17;;;;;;;5.93;4.03;;;37.90;63.60;;;;;;5004649;28;20424;-61
2023/09/12 08:49:23;;;;;;;5.03;4.07;;;39.20;62.20;;;;;;5001832;28;20045;-64
2023/09/12 08:52:27;;;;;;;11.57;4.38;;;38.40;61.80;;;;;;5008862;28;20045;-63
2023/09/12 08:55:34;;;;;;;5.68;4.80;;;38.20;63.20;;;;;;5003066;28;20040;-60
2023/09/12 08:58:39;;;;;;;9.40;4.80;;;37.50;61.60;;;;;;5002464;28;20403;-59
2023/09/12 09:01:44;;;;;;;5.95;4.57;;;37.40;63.80;;;;;;5006560;28;20048;-61
2023/09/12 09:04:50;;;;;;;8.27;4.70;;;37.10;63.90;;;;;;5001403;28;20045;-63
2023/09/12 09:07:54;;;;;;;6.43;4.28;;;37.40;63.40;;;;;;5007745;28;20405;-61
2023/09/12 09:10:59;;;;;;;5.38;4.65;;;36.00;63.80;;;;;;5006690;28;20057;-60
2023/09/12 09:14:03;;;;;;;5.80;4.38;;;37.20;63.40;;;;;;5004786;28;20036;-60
2023/09/12 09:17:11;;;;;;;10.68;4.30;;;38.40;61.40;;;;;;5003574;28;20061;-61
2023/09/12 09:20:29;;;;;;;6.25;4.15;;;37.30;62.30;;;;;;5009016;28;20053;-64
2023/09/12 09:23:45;;;;;;;6.72;4.38;;;40.40;60.60;;;;;;5001959;28;20045;-60
2023/09/12 09:26:51;;;;;;;7.72;4.43;;;39.00;60.00;;;;;;5007178;28;20061;-63
2023/09/12 09:29:55;;;;;;;8.95;4.10;;;40.20;59.90;;;;;;5005129;28;20049;-63
2023/09/12 09:33:03;;;;;;;7.28;4.18;;;43.20;57.60;;;;;;5004863;28;20041;-61
2023/09/12 09:36:07;;;;;;;5.13;3.55;;;43.90;56.50;;;;;;5005299;28;20053;-62
2023/09/12 09:39:12;;;;;;;6.50;3.60;;;44.80;54.70;;;;;;5002237;28;20037;-60
2023/09/12 09:42:16;;;;;;;5.85;3.70;;;45.10;55.20;;;;;;5002095;28;20044;-61
2023/09/12 09:45:20;;;;;;;5.10;3.40;;;44.80;53.70;;;;;;5008156;28;20626;-64
2023/09/12 09:48:28;;;;;;;13.50;3.80;;;45.50;52.70;;;;;;5007027;28;20145;-63
2023/09/12 09:51:32;;;;;;;4.70;3.33;;;46.40;52.20;;;;;;5011184;28;20040;-63
2023/09/12 09:54:44;;;;;;;6.28;3.70;;;43.70;53.00;;;;;;5014399;28;20050;-60
2023/09/12 09:57:48;;;;;;;8.48;3.55;;;42.10;53.50;;;;;;5009047;28;20057;-64
2023/09/12 10:00:53;;;;;;;6.22;4.03;;;39.10;54.30;;;;;;5011174;28;20053;-62
2023/09/12 10:04:01;;;;;;;4.38;3.65;;;37.70;55.70;;;;;;5007353;28;20037;-61
2023/09/12 10:07:05;;;;;;;4.03;3.15;;;40.90;54.90;;;;;;5008773;28;20037;-63
2023/09/12 10:10:10;;;;;;;5.90;3.22;;;43.50;52.40;;;;;;5009937;28;20065;-61
2023/09/12 10:13:16;;;;;;;5.68;3.70;;;43.20;51.50;;;;;;5010052;28;20056;-63
2023/09/12 10:16:27;;;;;;;3.85;3.00;;;43.50;52.40;;;;;;5010753;28;20045;-62
2023/09/12 10:19:51;;;;;;;5.45;2.92;;;43.10;49.30;;;;;;5012848;28;20519;-61
2023/09/12 10:23:12;;;;;;;4.55;3.13;;;43.10;48.20;;;;;;5007054;28;20040;-62
2023/09/12 10:26:16;;;;;;;4.25;3.03;;;43.00;50.50;;;;;;5008383;28;20527;-63
2023/09/12 10:29:20;;;;;;;3.67;2.95;;;44.20;48.90;;;;;;5008851;28;20053;-62
2023/09/12 10:32:26;;;;;;;8.18;3.42;;;44.10;49.80;;;;;;5009437;28;20049;-62
2023/09/12 10:35:34;;;;;;;4.22;3.80;;;37.40;52.70;;;;;;5009295;28;20045;-62
2023/09/12 10:38:49;;;;;;;6.88;3.78;;;36.10;55.80;;;;;;5011183;28;20048;-62
2023/09/12 10:41:54;;;;;;;6.65;3.50;;;38.70;54.10;;;;;;5013088;28;20037;-63
2023/09/12 10:45:00;;;;;;;5.38;3.47;;;41.40;52.80;;;;;;5009870;28;20060;-61
2023/09/12 10:48:04;;;;;;;5.20;3.08;;;43.50;52.20;;;;;;5009415;28;20057;-62
2023/09/12 10:51:09;;;;;;;5.15;3.00;;;44.50;51.70;;;;;;5010156;28;20041;-63
2023/09/12 10:54:40;;;;;;;6.45;3.05;;;46.20;50.90;;;;;;5009272;28;20057;-63
2023/09/12 10:58:04;;;;;;;6.15;3.00;;;48.00;49.80;;;;;;5009660;28;20053;-62
2023/09/12 11:01:24;;;;;;;7.30;2.95;;;44.20;49.20;;;;;;5009731;28;20041;-61
2023/09/12 11:04:30;;;;;;;7.93;3.22;;;43.70;50.40;;;;;;5011501;28;20515;-60
2023/09/12 11:07:40;;;;;;;6.72;3.47;;;45.70;49.90;;;;;;4998911;28;20056;-63
2023/09/12 11:10:44;;;;;;;3.47;3.17;;;41.80;50.50;;;;;;5008075;28;20037;-63
2023/09/12 11:14:05;;;;;;;3.53;3.22;;;40.90;52.70;;;;;;5007798;28;20040;-62
2023/09/12 11:17:10;;;;;;;5.75;3.10;;;42.80;51.50;;;;;;5007123;28;20056;-62
2023/09/12 11:20:16;;;;;;;8.15;3.88;;;44.00;51.10;;;;;;5007325;28;20515;-63
2023/09/12 11:23:21;;;;;;;8.35;3.85;;;40.90;52.10;;;;;;5008922;28;20057;-61
2023/09/12 11:26:25;;;;;;;5.43;3.78;;;37.60;53.60;;;;;;5008803;28;20041;-61
2023/09/12 11:29:38;;;;;;;3.97;3.58;;;38.20;54.20;;;;;;5007670;28;20048;-61
2023/09/12 11:32:48;;;;;;;4.28;3.35;;;40.00;53.90;;;;;;5006975;28;20036;-63
2023/09/12 11:35:57;;;;;;;6.15;3.40;;;42.80;52.70;;;;;;5005245;28;20113;-61
2023/09/12 11:39:02;;;;;;;;;;;44.80;51.50;;;;;;5011289;28;20400;-62
2023/09/12 11:42:13;;;;;;;8.80;3.78;;;46.00;49.50;;;;;;5006090;28;19917;-61
2023/09/12 11:45:23;;;;;;;7.93;3.00;;;46.50;49.60;;;;;;5009313;28;20045;-64
2023/09/12 11:48:29;;;;;;;6.93;3.33;;;46.40;49.60;;;;;;5005604;28;20045;-63
2023/09/12 11:51:34;;;;;;;4.18;3.13;;;47.10;49.10;;;;;;5004026;28;20041;-63
2023/09/12 11:54:38;;;;;;;5.22;3.30;;;47.00;48.70;;;;;;5007129;28;20405;-63
2023/09/12 11:57:42;;;;;;;3.85;3.03;;;46.00;48.50;;;;;;5004868;28;20045;-63
2023/09/12 12:00:51;;;;;;;6.32;2.97;;;44.20;49.80;;;;;;5007129;28;20041;-62
2023/09/12 12:03:56;;;;;;;7.67;3.30;;;42.60;52.20;;;;;;5007180;28;20041;-64
2023/09/12 12:07:01;;;;;;;6.10;3.15;;;44.80;51.60;;;;;;5007578;28;20295;-63
2023/09/12 12:10:05;;;;;;;7.05;3.05;;;45.80;50.50;;;;;;5009632;28;20412;-63
2023/09/12 12:13:17;;;;;;;4.80;3.40;;;46.20;50.20;;;;;;5013208;23;20061;-57
2023/09/12 12:16:21;;;;;;;5.95;2.97;;;45.60;49.60;;;;;;5002209;28;20056;-58
2023/09/12 12:19:25;;;;;;;4.50;3.15;;;44.90;50.40;;;;;;5009091;28;20045;-54
2023/09/12 12:22:29;;;;;;;6.75;3.22;;;43.00;51.60;;;;;;5012787;28;20052;-58
2023/09/12 12:25:34;;;;;;;7.28;3.30;;;42.40;51.60;;;;;;5030783;28;20048;-57
2023/09/12 12:28:40;;;;;;;3.80;3.22;;;42.90;51.00;;;;;;5023711;28;20767;-58
2023/09/12 12:31:44;;;;;;;4.53;3.13;;;44.10;50.80;;;;;;5022019;28;20048;-58
2023/09/12 12:34:49;;;;;;;21.45;4.47;;;45.00;49.80;;;;;;5024962;28;20044;-57
2023/09/12 12:37:58;;;;;;;6.22;3.05;;;44.90;49.60;;;;;;5028413;28;20515;-55
2023/09/12 12:41:02;;;;;;;4.13;2.88;;;44.60;50.40;;;;;;5027930;28;20052;-58
2023/09/12 12:44:06;;;;;;;12.35;3.00;;;45.90;49.50;;;;;;5027207;28;20060;-57
2023/09/12 12:47:11;;;;;;;3.65;3.15;;;42.80;49.50;;;;;;5030822;28;20056;-57
2023/09/12 12:50:19;;;;;;;6.75;2.85;;;44.70;50.20;;;;;;5027471;28;20056;-58
2023/09/12 12:53:43;;;;;;;3.85;3.20;;;45.10;49.20;;;;;;5026230;28;20052;-58
2023/09/12 12:56:47;;;;;;;3.85;2.83;;;44.90;48.90;;;;;;5028071;28;20036;-58
2023/09/12 12:59:51;;;;;;;5.63;2.92;;;45.10;48.90;;;;;;5025319;28;20041;-58
2023/09/12 13:02:55;;;;;;;4.03;2.90;;;45.90;49.30;;;;;;5026039;28;20045;-58
2023/09/12 13:05:59;;;;;;;3.88;2.92;;;45.70;48.20;;;;;;5023521;28;20052;-58
2023/09/12 13:09:05;;;;;;;4.57;2.90;;;45.50;47.80;;;;;;5023611;28;20048;-58
2023/09/12 13:12:10;;;;;;;4.18;2.95;;;44.90;48.10;;;;;;5024448;28;20060;-58
2023/09/12 13:15:15;;;;;;;4.60;3.10;;;43.50;48.30;;;;;;5029125;28;20045;-59
2023/09/12 13:18:19;;;;;;;5.72;3.75;;;42.90;48.50;;;;;;5025944;28;20044;-58
2023/09/12 13:21:23;;;;;;;5.82;3.53;;;41.80;49.00;;;;;;5024426;28;20040;-56
2023/09/12 13:24:27;;;;;;;5.43;3.75;;;40.00;50.70;;;;;;5025449;28;20052;-56
2023/09/12 13:27:31;;;;;;;5.55;3.95;;;38.70;51.00;;;;;;5024268;28;20510;-57
2023/09/12 13:30:35;;;;;;;4.60;3.38;;;35.80;50.60;;;;;;5029155;28;20057;-58
2023/09/12 13:33:39;;;;;;;3.72;3.20;;;38.40;51.60;;;;;;5025743;28;20057;-58
2023/09/12 13:36:43;;;;;;;5.82;3.25;;;40.50;50.10;;;;;;5022991;28;20113;-57
2023/09/12 13:39:49;;;;;;;3.75;3.00;;;41.60;49.40;;;;;;5030337;28;20040;-57
2023/09/12 13:42:53;;;;;;;4.13;3.10;;;39.10;49.00;;;;;;5031016;28;20037;-58
2023/09/12 13:45:57;;;;;;;5.75;3.40;;;41.20;48.90;;;;;;5025619;28;20424;-57
2023/09/12 13:49:03;;;;;;;5.90;3.28;;;42.40;48.30;;;;;;5028155;28;20063;-58
2023/09/12 13:52:07;;;;;;;4.97;3.10;;;40.90;49.30;;;;;;5027091;28;20068;-58
2023/09/12 13:55:14;;;;;;;5.00;3.55;;;41.60;49.40;;;;;;5030076;28;20048;-58
2023/09/12 13:58:18;;;;;;;8.57;3.35;;;41.60;48.70;;;;;;5031127;28;20045;-59
2023/09/12 14:01:22;;;;;;;4.68;3.50;;;42.40;48.50;;;;;;5032275;28;20044;-58
2023/09/12 14:04:27;;;;;;;7.70;3.40;;;39.60;49.10;;;;;;5032136;28;20044;-58
2023/09/12 14:07:31;;;;;;;6.65;3.35;;;40.00;50.80;;;;;;5029596;28;20052;-57
2023/09/12 14:10:35;;;;;;;5.07;3.75;;;40.50;50.00;;;;;;5027788;28;20044;-58
2023/09/12 14:13:39;;;;;;;5.80;3.70;;;40.00;49.90;;;;;;5025153;28;20048;-56
2023/09/12 14:16:45;;;;;;;7.18;3.72;;;39.80;50.40;;;;;;5026940;28;20048;-57
2023/09/12 14:19:49;;;;;;;3.92;3.55;;;39.30;50.20;;;;;;5029645;28;20045;-58
2023/09/12 14:22:53;;;;;;;8.20;3.85;;;38.00;52.10;;;;;;5028286;28;20395;-53
2023/09/12 14:25:57;;;;;;;5.78;3.65;;;37.50;52.00;;;;;;5029239;28;20048;-58
2023/09/12 14:29:01;;;;;;;6.18;3.67;;;37.40;51.80;;;;;;5026444;28;20048;-57
2023/09/12 14:32:05;;;;;;;8.52;4.13;;;37.10;53.40;;;;;;5027229;28;20049;-59
2023/09/12 14:35:09;;;;;;;6.47;3.92;;;37.00;53.20;;;;;;5027749;28;20044;-57
2023/09/12 14:38:14;;;;;;;6.95;4.07;;;35.80;54.20;;;;;;5026887;28;20123;-54
2023/09/12 14:41:18;;;;;;;8.05;4.68;;;35.70;54.70;;;;;;5029314;28;20515;-59
2023/09/12 14:44:22;;;;;;;4.75;3.97;;;35.90;55.30;;;;;;5028533;28;20052;-59
2023/09/12 14:47:27;;;;;;;10.48;4.30;;;35.90;54.80;;;;;;5028928;28;20052;-58
2023/09/12 14:50:31;;;;;;;5.05;4.13;;;35.60;55.70;;;;;;5027730;28;20060;-58
2023/09/12 14:53:35;;;;;;;7.97;4.13;;;34.40;55.40;;;;;;5031073;28;20400;-57
2023/09/12 14:56:41;;;;;;;6.97;4.35;;;34.40;56.20;;;;;;5025493;28;20041;-56
2023/09/12 14:59:46;;;;;;;4.88;3.95;;;34.70;55.90;;;;;;5032599;28;20033;-58
2023/09/12 15:02:50;;;;;;;9.38;4.10;;;34.80;56.40;;;;;;5033404;28;20048;-58
2023/09/12 15:05:54;;;;;;;5.93;4.15;;;35.00;56.50;;;;;;5027750;28;20036;-58
2023/09/12 15:08:58;;;;;;;6.97;4.45;;;35.00;55.90;;;;;;5033184;28;20518;-57
2023/09/12 15:12:02;;;;;;;5.03;4.35;;;34.40;55.50;;;;;;5032670;28;20052;-57
2023/09/12 15:15:07;;;;;;;7.35;4.30;;;34.70;56.30;;;;;;5028805;28;20626;-58
2023/09/12 15:18:11;;;;;;;5.88;4.10;;;34.40;57.20;;;;;;5033202;28;20048;-58
2023/09/12 15:21:15;;;;;;;6.72;4.30;;;34.30;57.40;;;;;;5031981;28;20502;-58
2023/09/12 15:24:19;;;;;;;6.40;4.13;;;34.50;57.30;;;;;;5030098;28;20045;-59
2023/09/12 15:27:23;;;;;;;5.20;4.00;;;34.60;57.20;;;;;;5033034;28;20049;-57
2023/09/12 15:30:27;;;;;;;5.90;3.85;;;34.50;56.80;;;;;;5031651;28;20052;-58
2023/09/12 15:33:30;;;;;;;8.52;4.22;;;34.40;57.40;;;;;;5031489;28;20522;-58
2023/09/12 15:36:44;;;;;;;5.25;4.13;;;34.20;57.80;;;;;;5032532;28;20048;-58
2023/09/12 15:39:48;;;;;;;8.85;4.35;;;33.90;58.60;;;;;;5024681;28;20396;-57
2023/09/12 15:42:52;;;;;;;5.18;4.32;;;33.70;58.10;;;;;;5031979;28;20036;-57
2023/09/12 15:45:56;;;;;;;12.38;4.40;;;33.50;58.40;;;;;;5032788;28;20116;-58
2023/09/12 15:49:01;;;;;;;8.30;3.85;;;32.50;58.40;;;;;;5025278;28;20052;-59
2023/09/12 15:52:07;;;;;;;7.18;4.00;;;32.70;59.20;;;;;;5032491;28;20053;-57
2023/09/12 15:55:11;;;;;;;8.48;4.47;;;32.70;58.80;;;;;;5029440;28;20048;-58
2023/09/12 15:58:15;;;;;;;5.40;4.47;;;32.70;58.30;;;;;;5029238;28;20041;-58